createdAt,value
2022-08-08T00:00:51.082Z,58.23
2022-08-08T00:01:08.218Z,58.03
2022-08-08T00:02:03.182Z,57.63
2022-08-08T00:02:38.812Z,57.20
2022-08-08T00:03:38.738Z,56.80
2022-08-08T00:04:38.963Z,56.60
2022-08-08T00:06:00.826Z,56.49
2022-08-08T00:06:38.714Z,56.27
2022-08-08T00:07:38.825Z,56.57
2022-08-08T00:08:38.689Z,56.47
2022-08-08T00:09:38.688Z,56.67
2022-08-08T00:10:38.650Z,56.57
2022-08-08T00:11:57.883Z,56.67
2022-08-08T00:12:38.618Z,56.47
2022-08-08T00:14:15.108Z,56.47
2022-08-08T00:14:48.418Z,56.37
2022-08-08T00:15:57.589Z,56.16
2022-08-08T00:16:38.561Z,56.16
2022-08-08T00:18:02.163Z,56.37
2022-08-08T00:18:38.532Z,56.37
2022-08-08T00:19:38.547Z,56.27
2022-08-08T00:20:38.516Z,56.07
2022-08-08T00:21:39.361Z,56.37
2022-08-08T00:22:39.594Z,56.27
2022-08-08T00:23:43.024Z,56.57
2022-08-08T00:24:39.438Z,56.77
2022-08-08T00:25:44.977Z,56.87
2022-08-08T00:26:38.423Z,56.67
2022-08-08T00:27:38.415Z,57.10
2022-08-08T00:28:38.430Z,57.28
2022-08-08T00:29:44.968Z,57.17
2022-08-08T00:30:45.118Z,57.37
2022-08-08T00:32:28.253Z,57.17
2022-08-08T00:32:40.776Z,57.57
2022-08-08T00:34:17.923Z,57.88
2022-08-08T00:34:38.314Z,57.37
2022-08-08T00:35:38.303Z,56.77
2022-08-08T00:36:38.343Z,56.97
2022-08-08T00:37:48.325Z,57.07
2022-08-08T00:38:51.434Z,56.97
2022-08-08T00:41:09.995Z,57.07
2022-08-08T00:41:18.886Z,57.48
2022-08-08T00:41:54.857Z,57.48
2022-08-08T00:42:41.811Z,57.50
2022-08-08T00:43:40.710Z,57.70
2022-08-08T00:44:38.246Z,57.70
2022-08-08T00:45:38.171Z,57.81
2022-08-08T00:46:57.354Z,57.70
2022-08-08T00:48:04.902Z,57.60
2022-08-08T00:48:38.124Z,57.81
2022-08-08T00:49:38.132Z,57.70
2022-08-08T00:50:40.796Z,57.70
2022-08-08T00:51:41.977Z,57.60
2022-08-08T00:52:40.033Z,57.30
2022-08-08T00:53:43.736Z,57.20
2022-08-08T00:54:38.076Z,57.40
2022-08-08T00:55:54.019Z,57.30
2022-08-08T00:56:38.061Z,57.32
2022-08-08T00:57:38.015Z,57.03
2022-08-08T00:58:38.003Z,57.53
2022-08-08T00:59:44.217Z,57.23
2022-08-08T01:00:38.061Z,57.32
2022-08-08T01:01:39.172Z,57.73
2022-08-08T01:03:57.338Z,57.43
2022-08-08T01:04:07.797Z,57.23
2022-08-08T01:04:42.204Z,57.12
2022-08-08T01:05:58.921Z,57.63
2022-08-08T01:06:37.912Z,57.43
2022-08-08T01:07:55.914Z,57.83
2022-08-08T01:08:37.881Z,57.53
2022-08-08T01:09:41.323Z,57.73
2022-08-08T01:10:38.868Z,57.23
2022-08-08T01:11:37.856Z,57.12
2022-08-08T01:12:37.789Z,57.43
2022-08-08T01:13:43.753Z,57.83
2022-08-08T01:14:54.613Z,58.16
2022-08-08T01:15:43.923Z,58.36
2022-08-08T01:16:37.764Z,58.56
2022-08-08T01:17:52.058Z,59.09
2022-08-08T01:18:53.207Z,59.60
2022-08-08T01:19:57.880Z,59.90
2022-08-08T01:20:37.697Z,59.60
2022-08-08T01:22:13.083Z,59.42
2022-08-08T01:22:38.004Z,59.53
2022-08-08T01:24:05.407Z,59.73
2022-08-08T01:24:37.640Z,59.53
2022-08-08T01:25:40.736Z,59.73
2022-08-08T01:26:37.628Z,59.73
2022-08-08T01:27:43.543Z,59.83
2022-08-08T01:28:38.363Z,59.93
2022-08-08T01:29:58.834Z,60.77
2022-08-08T01:30:37.677Z,60.97
2022-08-08T01:32:06.446Z,61.27
2022-08-08T01:32:37.540Z,61.91
2022-08-08T01:33:42.929Z,62.41
2022-08-08T01:34:37.502Z,62.31
2022-08-08T01:35:38.373Z,62.62
2022-08-08T01:36:37.488Z,62.51
2022-08-08T01:37:58.276Z,62.21
2022-08-08T01:38:37.468Z,62.41
2022-08-08T01:39:41.969Z,62.41
2022-08-08T01:40:37.459Z,61.91
2022-08-08T01:41:38.139Z,61.47
2022-08-08T01:42:37.693Z,61.24
2022-08-08T01:43:38.866Z,61.04
2022-08-08T01:44:37.382Z,60.74
2022-08-08T01:45:37.723Z,60.94
2022-08-08T01:46:37.368Z,61.77
2022-08-08T01:48:16.104Z,62.41
2022-08-08T01:48:37.323Z,63.12
2022-08-08T01:49:38.730Z,64.36
2022-08-08T01:50:38.732Z,65.20
2022-08-08T01:52:51.613Z,65.30
2022-08-08T01:56:26.716Z,65.40
2022-08-08T01:56:37.454Z,64.90
2022-08-08T01:56:47.374Z,65.30
2022-08-08T01:58:11.347Z,65.00
2022-08-08T01:58:46.722Z,64.79
2022-08-08T02:00:02.499Z,64.90
2022-08-08T02:00:48.448Z,64.70
2022-08-08T02:01:59.947Z,64.59
2022-08-08T02:02:45.826Z,64.39
2022-08-08T02:03:54.450Z,63.89
2022-08-08T02:04:45.618Z,63.28
2022-08-08T02:05:56.551Z,62.57
2022-08-08T02:06:45.608Z,62.87
2022-08-08T02:07:49.034Z,62.27
2022-08-08T02:08:47.281Z,62.07
2022-08-08T02:10:03.799Z,61.76
2022-08-08T02:10:45.859Z,61.25
2022-08-08T02:12:00.091Z,60.82
2022-08-08T02:12:45.577Z,60.42
2022-08-08T02:13:53.785Z,59.81
2022-08-08T02:14:49.829Z,59.78
2022-08-08T02:15:45.526Z,59.38
2022-08-08T02:16:45.460Z,59.05
2022-08-08T02:17:45.477Z,58.75
2022-08-08T02:18:45.454Z,58.45
2022-08-08T02:20:07.621Z,58.45
2022-08-08T02:21:02.483Z,58.14
2022-08-08T02:21:45.398Z,58.42
2022-08-08T02:22:52.396Z,58.22
2022-08-08T02:23:45.381Z,57.91
2022-08-08T02:24:45.363Z,58.01
2022-08-08T02:25:48.548Z,58.12
2022-08-08T02:26:45.487Z,58.22
2022-08-08T02:27:45.335Z,58.32
2022-08-08T02:28:48.398Z,58.12
2022-08-08T02:29:51.975Z,58.14
2022-08-08T02:30:50.199Z,58.01
2022-08-08T02:31:59.440Z,58.04
2022-08-08T02:32:45.265Z,57.94
2022-08-08T02:34:08.385Z,58.01
2022-08-08T02:35:06.427Z,57.91
2022-08-08T02:36:03.835Z,57.81
2022-08-08T02:36:45.211Z,57.61
2022-08-08T02:37:51.856Z,57.31
2022-08-08T02:38:50.482Z,57.71
2022-08-08T02:39:58.428Z,57.51
2022-08-08T02:40:49.787Z,57.01
2022-08-08T02:41:59.276Z,57.01
2022-08-08T02:42:45.120Z,56.70
2022-08-08T02:44:39.378Z,56.60
2022-08-08T02:44:58.802Z,56.50
2022-08-08T02:45:54.355Z,56.40
2022-08-08T02:46:45.062Z,56.50
2022-08-08T02:47:47.128Z,56.20
2022-08-08T02:48:45.282Z,56.20
2022-08-08T02:49:48.241Z,55.90
2022-08-08T02:50:47.274Z,55.97
2022-08-08T02:51:55.447Z,55.66
2022-08-08T02:52:51.009Z,55.66
2022-08-08T02:53:44.959Z,55.66
2022-08-08T02:54:44.948Z,55.57
2022-08-08T02:55:44.982Z,55.57
2022-08-08T02:56:44.952Z,55.57
2022-08-08T02:57:45.718Z,55.57
2022-08-08T02:58:44.898Z,55.57
2022-08-08T02:59:57.498Z,55.46
2022-08-08T03:00:50.808Z,55.57
2022-08-08T03:01:50.019Z,55.57
2022-08-08T03:02:50.210Z,55.57
2022-08-08T03:05:00.830Z,55.69
2022-08-08T03:05:09.342Z,55.79
2022-08-08T03:05:46.753Z,55.90
2022-08-08T03:06:44.837Z,56.10
2022-08-08T03:07:58.847Z,56.10
2022-08-08T03:08:44.790Z,56.10
2022-08-08T03:09:45.025Z,55.90
2022-08-08T03:10:53.943Z,56.10
2022-08-08T03:12:01.438Z,56.20
2022-08-08T03:13:02.228Z,56.30
2022-08-08T03:15:58.849Z,56.40
2022-08-08T03:16:09.630Z,56.50
2022-08-08T03:16:34.413Z,56.70
2022-08-08T03:17:25.620Z,56.70
2022-08-08T03:18:16.533Z,56.50
2022-08-08T03:19:17.873Z,56.40
2022-08-08T03:20:16.565Z,56.50
2022-08-08T03:21:16.500Z,56.70
2022-08-08T03:22:38.651Z,56.20
2022-08-08T03:23:17.853Z,56.60
2022-08-08T03:24:16.457Z,56.81
2022-08-08T03:25:18.942Z,56.93
2022-08-08T03:26:16.400Z,57.03
2022-08-08T03:27:16.410Z,58.34
2022-08-08T03:28:19.105Z,58.87
2022-08-08T03:29:18.848Z,59.31
2022-08-08T03:30:19.813Z,59.00
2022-08-08T03:31:25.021Z,58.63
2022-08-08T03:32:16.371Z,58.93
2022-08-08T03:33:54.796Z,59.41
2022-08-08T03:34:16.335Z,59.61
2022-08-08T03:35:16.283Z,59.81
2022-08-08T03:36:19.910Z,60.02
2022-08-08T03:37:59.990Z,60.22
2022-08-08T03:39:15.179Z,60.19
2022-08-08T03:39:20.570Z,60.39
2022-08-08T03:40:29.722Z,60.29
2022-08-08T03:42:13.258Z,60.49
2022-08-08T03:42:33.595Z,60.93
2022-08-08T03:43:19.858Z,61.43
2022-08-08T03:44:16.247Z,62.27
2022-08-08T03:46:05.359Z,62.77
2022-08-08T03:46:16.173Z,63.18
2022-08-08T03:47:20.234Z,63.81
2022-08-08T03:48:21.312Z,64.83
2022-08-08T03:49:57.764Z,65.47
2022-08-08T03:50:20.149Z,66.38
2022-08-08T03:51:16.093Z,67.42
2022-08-08T03:52:16.086Z,68.13
2022-08-08T03:53:16.100Z,68.13
2022-08-08T03:54:41.390Z,68.06
2022-08-08T03:55:54.808Z,67.96
2022-08-08T03:56:31.056Z,67.96
2022-08-08T03:58:35.688Z,68.19
2022-08-08T03:58:47.835Z,68.40
2022-08-08T03:59:22.523Z,68.60
2022-08-08T04:00:18.393Z,68.70
2022-08-08T04:01:24.410Z,68.70
2022-08-08T04:02:33.545Z,68.70
2022-08-08T04:03:15.936Z,68.73
2022-08-08T04:04:15.913Z,68.52
2022-08-08T04:05:19.438Z,68.63
2022-08-08T04:06:15.901Z,68.87
2022-08-08T04:07:16.464Z,69.37
2022-08-08T04:08:15.855Z,69.27
2022-08-08T04:09:15.825Z,69.51
2022-08-08T04:10:15.841Z,69.10
2022-08-08T04:11:17.602Z,69.30
2022-08-08T04:12:16.199Z,69.20
2022-08-08T04:13:18.235Z,69.10
2022-08-08T04:14:33.822Z,69.10
2022-08-08T04:15:15.773Z,69.20
2022-08-08T04:16:15.848Z,69.30
2022-08-08T04:17:46.682Z,69.51
2022-08-08T04:18:16.522Z,69.84
2022-08-08T04:19:24.064Z,70.15
2022-08-08T04:20:15.710Z,70.35
2022-08-08T04:21:20.045Z,70.68
2022-08-08T04:22:16.780Z,70.99
2022-08-08T04:23:15.651Z,71.09
2022-08-08T04:24:28.240Z,71.30
2022-08-08T04:25:15.692Z,71.64
2022-08-08T04:26:15.613Z,72.25
2022-08-08T04:27:19.665Z,72.75
2022-08-08T04:28:40.136Z,72.58
2022-08-08T04:29:15.563Z,72.58
2022-08-08T04:30:17.971Z,72.45
2022-08-08T04:31:56.906Z,72.25
2022-08-08T04:32:30.898Z,72.14
2022-08-08T04:33:15.957Z,72.04
2022-08-08T04:34:15.495Z,72.14
2022-08-08T04:35:15.531Z,72.25
2022-08-08T04:36:15.972Z,71.84
2022-08-08T04:37:15.461Z,71.94
2022-08-08T04:38:20.966Z,71.73
2022-08-08T04:40:03.735Z,71.50
2022-08-08T04:40:15.533Z,71.50
2022-08-08T04:41:17.807Z,71.60
2022-08-08T04:42:15.639Z,71.84
2022-08-08T04:43:15.394Z,71.73
2022-08-08T04:44:15.369Z,71.70
2022-08-08T04:45:15.348Z,71.50
2022-08-08T04:46:15.381Z,71.30
2022-08-08T04:47:16.619Z,71.09
2022-08-08T04:48:15.342Z,71.09
2022-08-08T04:49:15.309Z,70.68
2022-08-08T04:50:24.825Z,70.86
2022-08-08T04:51:17.412Z,70.65
2022-08-08T04:52:15.262Z,70.35
2022-08-08T04:53:52.510Z,70.42
2022-08-08T04:54:42.092Z,70.32
2022-08-08T04:55:15.221Z,70.32
2022-08-08T04:56:15.204Z,70.52
2022-08-08T04:57:15.228Z,70.92
2022-08-08T04:58:15.191Z,71.23
2022-08-08T04:59:15.542Z,71.33
2022-08-08T05:00:19.732Z,71.44
2022-08-08T05:01:15.203Z,71.44
2022-08-08T05:02:15.167Z,71.47
2022-08-08T05:03:18.910Z,71.67
2022-08-08T05:04:16.203Z,71.53
2022-08-08T05:05:20.242Z,71.53
2022-08-08T05:06:25.927Z,71.64
2022-08-08T05:07:15.934Z,71.53
2022-08-08T05:08:15.026Z,71.44
2022-08-08T05:09:15.871Z,71.44
2022-08-08T05:10:15.053Z,71.44
2022-08-08T05:11:22.638Z,71.50
2022-08-08T05:12:20.376Z,71.30
2022-08-08T05:13:17.819Z,70.59
2022-08-08T05:14:15.128Z,70.25
2022-08-08T05:15:14.997Z,69.95
2022-08-08T05:16:55.311Z,69.61
2022-08-08T05:17:15.324Z,69.41
2022-08-08T05:18:15.262Z,69.31
2022-08-08T05:20:10.329Z,69.10
2022-08-08T05:20:19.445Z,69.27
2022-08-08T05:21:14.888Z,69.07
2022-08-08T05:22:17.607Z,68.87
2022-08-08T05:23:14.863Z,68.87
2022-08-08T05:24:14.840Z,68.87
2022-08-08T05:25:14.845Z,68.26
2022-08-08T05:26:14.802Z,67.96
2022-08-08T05:27:14.805Z,67.82
2022-08-08T05:28:15.107Z,67.72
2022-08-08T05:29:14.772Z,68.02
2022-08-08T05:30:14.786Z,67.32
2022-08-08T05:32:04.689Z,67.01
2022-08-08T05:32:14.752Z,67.22
2022-08-08T05:33:14.699Z,67.22
2022-08-08T05:34:14.753Z,67.49
2022-08-08T05:35:14.724Z,67.18
2022-08-08T05:36:25.738Z,66.58
2022-08-08T05:37:17.382Z,66.38
2022-08-08T05:38:31.502Z,66.24
2022-08-08T05:39:14.763Z,66.04
2022-08-08T05:40:16.573Z,66.24
2022-08-08T05:41:14.620Z,65.94
2022-08-08T05:42:14.589Z,66.04
2022-08-08T05:43:38.432Z,66.04
2022-08-08T05:44:14.624Z,65.23
2022-08-08T05:45:25.448Z,65.70
2022-08-08T05:46:14.557Z,65.30
2022-08-08T05:47:14.542Z,65.10
2022-08-08T05:48:14.804Z,65.10
2022-08-08T05:49:14.497Z,65.00
2022-08-08T05:50:14.480Z,65.10
2022-08-08T05:51:16.093Z,64.59
2022-08-08T05:52:14.470Z,64.46
2022-08-08T05:53:53.839Z,64.16
2022-08-08T05:54:27.565Z,64.26
2022-08-08T05:55:14.440Z,64.46
2022-08-08T05:56:15.301Z,64.36
2022-08-08T05:57:15.370Z,64.56
2022-08-08T05:58:17.864Z,64.33
2022-08-08T05:59:14.406Z,64.33
2022-08-08T06:00:22.548Z,64.33
2022-08-08T06:01:14.340Z,64.13
2022-08-08T06:02:14.314Z,64.43
2022-08-08T06:03:24.746Z,64.10
2022-08-08T06:04:22.818Z,64.00
2022-08-08T06:05:34.324Z,63.90
2022-08-08T06:06:14.274Z,63.79
2022-08-08T06:07:14.293Z,63.87
2022-08-08T06:08:33.200Z,62.96
2022-08-08T06:10:00.666Z,62.65
2022-08-08T06:10:22.613Z,63.06
2022-08-08T06:11:16.704Z,62.73
2022-08-08T06:12:14.326Z,63.13
2022-08-08T06:13:14.274Z,63.23
2022-08-08T06:14:17.986Z,63.23
2022-08-08T06:15:16.161Z,62.83
2022-08-08T06:16:14.246Z,62.70
2022-08-08T06:17:19.658Z,62.49
2022-08-08T06:18:21.222Z,62.29
2022-08-08T06:19:16.446Z,61.69
2022-08-08T06:20:14.077Z,61.39
2022-08-08T06:21:32.822Z,61.18
2022-08-08T06:23:14.043Z,61.66
2022-08-08T06:24:23.206Z,61.16
2022-08-08T06:25:14.097Z,60.75
2022-08-08T06:26:38.886Z,60.15
2022-08-08T06:27:14.038Z,60.45
2022-08-08T06:28:13.959Z,60.42
2022-08-08T06:29:49.088Z,60.72
2022-08-08T06:30:26.418Z,59.62
2022-08-08T06:31:15.485Z,60.52
2022-08-08T06:32:15.224Z,59.08
2022-08-08T06:33:15.087Z,58.98
2022-08-08T06:34:26.380Z,59.19
2022-08-08T06:36:08.525Z,58.28
2022-08-08T06:36:14.406Z,58.45
2022-08-08T06:37:24.744Z,57.24
2022-08-08T06:38:14.710Z,57.24
2022-08-08T06:39:13.942Z,57.15
2022-08-08T06:40:16.047Z,56.84
2022-08-08T06:41:15.213Z,56.34
2022-08-08T06:42:14.529Z,57.04
2022-08-08T06:43:13.767Z,57.02
2022-08-08T06:44:18.574Z,56.41
2022-08-08T06:45:13.777Z,55.71
2022-08-08T06:46:13.776Z,55.81
2022-08-08T06:47:13.713Z,56.11
2022-08-08T06:48:13.742Z,55.51
2022-08-08T06:49:13.675Z,55.51
2022-08-08T06:50:17.445Z,55.51
2022-08-08T06:51:13.755Z,55.58
2022-08-08T06:52:16.106Z,54.17
2022-08-08T06:53:17.013Z,54.38
2022-08-08T06:54:13.628Z,54.38
2022-08-08T06:55:13.657Z,54.88
2022-08-08T06:56:16.618Z,54.98
2022-08-08T06:57:13.586Z,53.97
2022-08-08T06:58:13.601Z,54.25
2022-08-08T06:59:13.563Z,54.05
2022-08-08T07:00:13.608Z,54.35
2022-08-08T07:02:17.100Z,53.25
2022-08-08T07:02:32.414Z,52.84
2022-08-08T07:03:19.509Z,53.25
2022-08-08T07:04:37.509Z,52.74
2022-08-08T07:05:20.501Z,52.01
2022-08-08T07:06:13.462Z,52.01
2022-08-08T07:07:13.495Z,52.72
2022-08-08T07:08:13.427Z,52.42
2022-08-08T07:09:15.092Z,52.01
2022-08-08T07:10:13.406Z,52.42
2022-08-08T07:11:22.170Z,52.51
2022-08-08T07:12:13.445Z,53.02
2022-08-08T07:13:13.403Z,51.81
2022-08-08T07:14:14.052Z,52.19
2022-08-08T07:15:32.614Z,51.79
2022-08-08T07:16:13.324Z,52.09
2022-08-08T07:17:14.363Z,51.69
2022-08-08T07:18:36.909Z,51.49
2022-08-08T07:19:13.319Z,51.59
2022-08-08T07:20:13.304Z,52.26
2022-08-08T07:21:19.375Z,50.46
2022-08-08T07:22:19.278Z,50.66
2022-08-08T07:23:13.249Z,50.56
2022-08-08T07:24:13.536Z,50.66
2022-08-08T07:25:17.104Z,50.56
2022-08-08T07:26:13.238Z,51.04
2022-08-08T07:27:16.778Z,50.54
2022-08-08T07:28:18.839Z,50.24
2022-08-08T07:29:58.879Z,51.14
2022-08-08T07:30:19.646Z,50.74
2022-08-08T07:31:13.175Z,50.94
2022-08-08T07:32:15.898Z,50.74
2022-08-08T07:33:17.610Z,50.74
2022-08-08T07:34:27.004Z,50.63
2022-08-08T07:35:14.057Z,50.92
2022-08-08T07:36:13.191Z,49.91
2022-08-08T07:37:13.351Z,49.89
2022-08-08T07:38:20.305Z,50.59
2022-08-08T07:39:13.388Z,49.79
2022-08-08T07:40:28.746Z,49.79
2022-08-08T07:41:23.524Z,49.87
2022-08-08T07:42:13.000Z,49.76
2022-08-08T07:43:12.963Z,49.96
2022-08-08T07:44:40.456Z,50.16
2022-08-08T07:45:12.950Z,49.44
2022-08-08T07:46:24.089Z,49.14
2022-08-08T07:47:12.935Z,49.44
2022-08-08T07:48:12.904Z,48.52
2022-08-08T07:49:12.901Z,47.72
2022-08-08T07:50:12.870Z,47.81
2022-08-08T07:51:23.972Z,48.82
2022-08-08T07:52:13.324Z,48.42
2022-08-08T07:53:12.833Z,48.49
2022-08-08T07:54:24.084Z,48.79
2022-08-08T07:55:12.875Z,49.37
2022-08-08T07:56:12.820Z,46.27
2022-08-08T07:57:16.917Z,47.97
2022-08-08T07:58:12.967Z,47.65
2022-08-08T07:59:14.245Z,47.85
2022-08-08T08:00:16.456Z,47.65
2022-08-08T08:01:12.792Z,47.47
2022-08-08T08:02:34.550Z,47.57
2022-08-08T08:03:20.497Z,47.47
2022-08-08T08:04:16.175Z,47.75
2022-08-08T08:05:14.946Z,47.45
2022-08-08T08:06:12.654Z,47.75
2022-08-08T08:07:12.664Z,48.05
2022-08-08T08:08:12.657Z,47.45
2022-08-08T08:09:12.621Z,47.22
2022-08-08T08:10:12.962Z,47.22
2022-08-08T08:11:16.148Z,46.62
2022-08-08T08:12:30.227Z,46.53
2022-08-08T08:13:17.719Z,47.42
2022-08-08T08:14:12.678Z,47.42
2022-08-08T08:15:15.636Z,48.02
2022-08-08T08:16:12.566Z,47.33
2022-08-08T08:17:12.497Z,47.72
2022-08-08T08:18:14.391Z,48.22
2022-08-08T08:19:12.750Z,48.00
2022-08-08T08:20:12.466Z,48.10
2022-08-08T08:21:18.580Z,48.08
2022-08-08T08:22:12.535Z,48.28
2022-08-08T08:23:12.433Z,47.88
2022-08-08T08:24:12.605Z,47.88
2022-08-08T08:25:12.438Z,47.38
2022-08-08T08:26:12.422Z,47.88
2022-08-08T08:27:12.412Z,47.45
2022-08-08T08:28:21.153Z,47.63
2022-08-08T08:29:13.844Z,47.33
2022-08-08T08:30:12.376Z,46.22
2022-08-08T08:31:12.339Z,46.22
2022-08-08T08:32:12.332Z,46.44
2022-08-08T08:33:12.348Z,46.64
2022-08-08T08:34:12.291Z,46.54
2022-08-08T08:35:15.179Z,47.03
2022-08-08T08:36:17.606Z,46.84
2022-08-08T08:37:12.265Z,46.96
2022-08-08T08:38:17.008Z,46.76
2022-08-08T08:39:17.556Z,47.14
2022-08-08T08:40:12.965Z,46.94
2022-08-08T08:41:13.254Z,46.44
2022-08-08T08:42:12.194Z,46.64
2022-08-08T08:43:16.799Z,46.94
2022-08-08T08:44:13.703Z,46.94
2022-08-08T08:45:22.992Z,46.51
2022-08-08T08:46:12.174Z,46.72
2022-08-08T08:47:12.119Z,46.31
2022-08-08T08:48:19.410Z,46.51
2022-08-08T08:49:12.106Z,46.72
2022-08-08T08:50:17.496Z,45.90
2022-08-08T08:51:12.085Z,46.51
2022-08-08T08:52:12.091Z,46.30
2022-08-08T08:53:53.964Z,46.39
2022-08-08T08:54:12.035Z,46.09
2022-08-08T08:55:12.226Z,45.87
2022-08-08T08:56:12.059Z,45.67
2022-08-08T08:57:15.761Z,45.37
2022-08-08T08:58:12.005Z,45.78
2022-08-08T08:59:15.100Z,45.85
2022-08-08T09:00:16.996Z,45.85
2022-08-08T09:01:13.531Z,45.63
2022-08-08T09:02:12.090Z,44.93
2022-08-08T09:03:11.906Z,44.74
2022-08-08T09:04:31.878Z,45.55
2022-08-08T09:05:13.946Z,45.26
2022-08-08T09:06:26.095Z,45.15
2022-08-08T09:07:12.653Z,45.45
2022-08-08T09:08:12.343Z,44.96
2022-08-08T09:09:18.913Z,45.45
2022-08-08T09:10:16.972Z,45.53
2022-08-08T09:11:11.865Z,45.53
2022-08-08T09:12:11.815Z,45.33
2022-08-08T09:13:11.780Z,44.54
2022-08-08T09:14:11.759Z,45.33
2022-08-08T09:15:11.739Z,45.33
2022-08-08T09:16:11.736Z,45.11
2022-08-08T09:17:17.368Z,45.31
2022-08-08T09:18:12.971Z,44.71
2022-08-08T09:19:11.729Z,44.59
2022-08-08T09:22:01.475Z,44.89
2022-08-08T09:22:10.259Z,44.40
2022-08-08T09:22:25.817Z,44.37
2022-08-08T09:23:17.345Z,44.27
2022-08-08T09:24:15.178Z,44.77
2022-08-08T09:25:15.369Z,44.37
2022-08-08T09:26:15.121Z,44.48
2022-08-08T09:27:20.440Z,44.35
2022-08-08T09:28:23.922Z,44.35
2022-08-08T09:29:22.664Z,44.45
2022-08-08T09:30:16.315Z,44.65
2022-08-08T09:31:15.100Z,44.95
2022-08-08T09:32:15.046Z,43.26
2022-08-08T09:34:28.465Z,44.25
2022-08-08T09:34:37.791Z,44.75
2022-08-08T09:35:15.930Z,44.45
2022-08-08T09:36:15.094Z,44.65
2022-08-08T09:37:37.319Z,44.67
2022-08-08T09:38:17.681Z,44.57
2022-08-08T09:39:19.185Z,44.48
2022-08-08T09:40:14.987Z,44.45
2022-08-08T09:41:14.959Z,44.35
2022-08-08T09:42:21.657Z,44.75
2022-08-08T09:43:16.840Z,43.96
2022-08-08T09:44:19.081Z,44.15
2022-08-08T09:45:20.649Z,44.04
2022-08-08T09:46:16.949Z,44.33
2022-08-08T09:47:25.714Z,44.41
2022-08-08T09:48:21.964Z,43.82
2022-08-08T09:49:41.603Z,43.99
2022-08-08T09:50:14.857Z,43.60
2022-08-08T09:51:14.784Z,42.60
2022-08-08T09:52:16.088Z,43.22
2022-08-08T09:53:31.905Z,43.62
2022-08-08T09:54:19.641Z,43.91
2022-08-08T09:55:17.431Z,43.82
2022-08-08T09:56:24.767Z,43.91
2022-08-08T09:57:16.436Z,44.09
2022-08-08T09:58:19.846Z,43.79
2022-08-08T09:59:50.321Z,43.38
2022-08-08T10:01:57.878Z,43.77
2022-08-08T10:02:15.804Z,43.48
2022-08-08T10:03:14.658Z,43.57
2022-08-08T10:04:14.628Z,43.28
2022-08-08T10:05:15.772Z,43.38
2022-08-08T10:06:14.639Z,43.67
2022-08-08T10:07:15.821Z,43.08
2022-08-08T10:08:14.608Z,43.67
2022-08-08T10:09:14.585Z,43.26
2022-08-08T10:10:14.589Z,43.16
2022-08-08T10:12:25.893Z,43.65
2022-08-08T10:12:37.687Z,43.55
2022-08-08T10:13:15.101Z,43.46
2022-08-08T10:14:27.996Z,42.25
2022-08-08T10:15:18.380Z,42.74
2022-08-08T10:16:14.470Z,42.84
2022-08-08T10:18:05.512Z,42.94
2022-08-08T10:18:25.486Z,42.44
2022-08-08T10:19:14.485Z,42.74
2022-08-08T10:20:16.833Z,42.82
2022-08-08T10:21:23.240Z,42.14
2022-08-08T10:22:14.524Z,42.54
2022-08-08T10:23:14.413Z,42.94
2022-08-08T10:24:28.710Z,41.53
2022-08-08T10:25:15.841Z,41.73
2022-08-08T10:26:31.021Z,41.53
2022-08-08T10:27:14.341Z,41.73
2022-08-08T10:28:15.170Z,42.22
2022-08-08T10:29:22.839Z,42.13
2022-08-08T10:30:16.689Z,42.22
2022-08-08T10:31:14.287Z,42.52
2022-08-08T10:32:14.280Z,41.73
2022-08-08T10:33:14.303Z,41.73
2022-08-08T10:34:19.495Z,42.32
2022-08-08T10:36:07.148Z,42.72
2022-08-08T10:36:22.135Z,42.92
2022-08-08T10:37:14.222Z,42.90
2022-08-08T10:38:14.241Z,41.81
2022-08-08T10:39:14.234Z,42.11
2022-08-08T10:40:16.182Z,41.91
2022-08-08T10:41:14.149Z,42.40
2022-08-08T10:42:16.291Z,41.81
2022-08-08T10:43:14.332Z,42.01
2022-08-08T10:44:14.129Z,42.11
2022-08-08T10:45:16.117Z,41.22
2022-08-08T10:46:29.702Z,41.52
2022-08-08T10:47:14.079Z,41.41
2022-08-08T10:48:14.041Z,42.11
2022-08-08T10:50:00.451Z,42.48
2022-08-08T10:50:15.753Z,41.89
2022-08-08T10:51:14.096Z,40.69
2022-08-08T10:52:14.008Z,41.17
2022-08-08T10:53:14.037Z,41.30
2022-08-08T10:54:14.006Z,40.90
2022-08-08T10:55:13.981Z,41.10
2022-08-08T10:56:27.707Z,41.69
2022-08-08T10:57:13.944Z,39.81
2022-08-08T10:58:13.947Z,39.32
2022-08-08T10:59:14.530Z,40.11
2022-08-08T11:00:13.911Z,38.71
2022-08-08T11:01:15.670Z,39.60
2022-08-08T11:02:13.941Z,38.51
2022-08-08T11:03:15.527Z,38.12
2022-08-08T11:04:13.875Z,38.61
2022-08-08T11:05:14.703Z,39.12
2022-08-08T11:06:14.124Z,39.62
2022-08-08T11:08:30.896Z,39.62
2022-08-08T11:08:53.031Z,40.09
2022-08-08T11:09:19.650Z,39.11
2022-08-08T11:10:19.666Z,39.18
2022-08-08T11:12:00.120Z,38.69
2022-08-08T11:12:23.825Z,38.10
2022-08-08T11:13:30.215Z,38.49
2022-08-08T11:14:15.816Z,37.32
2022-08-08T11:15:13.731Z,38.63
2022-08-08T11:16:32.961Z,38.82
2022-08-08T11:17:15.727Z,39.03
2022-08-08T11:18:13.703Z,39.11
2022-08-08T11:19:15.540Z,39.11
2022-08-08T11:20:13.708Z,39.12
2022-08-08T11:21:19.640Z,39.72
2022-08-08T11:22:13.604Z,39.81
2022-08-08T11:23:13.609Z,40.29
2022-08-08T11:24:13.977Z,39.97
2022-08-08T11:25:14.361Z,39.87
2022-08-08T11:26:18.690Z,39.06
2022-08-08T11:27:20.202Z,39.18
2022-08-08T11:28:13.553Z,39.87
2022-08-08T11:29:13.526Z,38.87
2022-08-08T11:30:24.436Z,38.87
2022-08-08T11:31:13.512Z,37.88
2022-08-08T11:32:13.552Z,38.57
2022-08-08T11:33:13.515Z,38.96
2022-08-08T11:34:24.143Z,37.21
2022-08-08T11:35:27.939Z,37.70
2022-08-08T11:36:13.613Z,38.98
2022-08-08T11:37:15.206Z,38.10
2022-08-08T11:38:39.389Z,38.18
2022-08-08T11:39:13.473Z,38.00
2022-08-08T11:40:13.493Z,37.51
2022-08-08T11:41:13.596Z,37.30
2022-08-08T11:42:13.346Z,37.92
2022-08-08T11:43:13.334Z,37.60
2022-08-08T11:44:13.348Z,37.60
2022-08-08T11:45:13.326Z,38.18
2022-08-08T11:46:18.007Z,37.07
2022-08-08T11:47:17.004Z,35.99
2022-08-08T11:48:13.269Z,36.98
2022-08-08T11:49:14.205Z,37.17
2022-08-08T11:50:13.252Z,38.16
2022-08-08T11:51:30.215Z,38.26
2022-08-08T11:52:18.755Z,39.52
2022-08-08T11:53:13.854Z,37.45
2022-08-08T11:54:32.328Z,37.65
2022-08-08T11:55:13.210Z,37.04
2022-08-08T11:56:13.187Z,36.55
2022-08-08T11:57:13.971Z,36.36
2022-08-08T11:58:15.310Z,37.05
2022-08-08T11:59:13.135Z,37.66
2022-08-08T12:00:13.094Z,38.16
2022-08-08T12:01:16.335Z,36.96
2022-08-08T12:02:31.175Z,35.97
2022-08-08T12:03:14.092Z,36.17
2022-08-08T12:04:13.093Z,36.38
2022-08-08T12:05:13.820Z,35.28
2022-08-08T12:06:13.083Z,34.89
2022-08-08T12:07:16.842Z,34.22
2022-08-08T12:08:13.035Z,34.63
2022-08-08T12:09:17.172Z,35.22
2022-08-08T12:10:13.440Z,35.69
2022-08-08T12:11:13.012Z,36.07
2022-08-08T12:12:12.961Z,35.08
2022-08-08T12:13:14.310Z,34.69
2022-08-08T12:14:13.012Z,35.38
2022-08-08T12:15:12.943Z,34.87
2022-08-08T12:16:12.930Z,35.48
2022-08-08T12:17:12.908Z,36.46
2022-08-08T12:18:12.894Z,36.09
2022-08-08T12:19:12.858Z,36.19
2022-08-08T12:20:14.582Z,37.37
2022-08-08T12:21:12.867Z,37.65
2022-08-08T12:22:20.826Z,36.15
2022-08-08T12:23:25.138Z,35.96
2022-08-08T12:24:12.900Z,35.58
2022-08-08T12:25:12.823Z,36.46
2022-08-08T12:26:17.070Z,35.17
2022-08-08T12:27:12.760Z,35.07
2022-08-08T12:28:15.439Z,34.56
2022-08-08T12:29:12.745Z,35.03
2022-08-08T12:30:15.985Z,34.17
2022-08-08T12:31:12.749Z,34.56
2022-08-08T12:32:17.208Z,35.58
2022-08-08T12:33:12.720Z,35.38
2022-08-08T12:34:12.688Z,35.68
2022-08-08T12:35:17.734Z,36.76
2022-08-08T12:36:12.670Z,35.68
2022-08-08T12:37:12.655Z,35.97
2022-08-08T12:38:17.806Z,36.05
2022-08-08T12:39:12.661Z,36.25
2022-08-08T12:40:12.711Z,33.29
2022-08-08T12:41:18.284Z,33.69
2022-08-08T12:42:20.883Z,33.97
2022-08-08T12:43:12.589Z,33.48
2022-08-08T12:44:12.544Z,34.56
2022-08-08T12:45:53.508Z,34.95
2022-08-08T12:46:12.570Z,35.44
2022-08-08T12:47:13.014Z,35.44
2022-08-08T12:48:35.716Z,35.46
2022-08-08T12:49:25.409Z,35.66
2022-08-08T12:50:12.495Z,35.07
2022-08-08T12:51:12.536Z,35.96
2022-08-08T12:52:28.039Z,35.96
2022-08-08T12:53:12.436Z,35.15
2022-08-08T12:54:24.380Z,35.25
2022-08-08T12:55:14.480Z,33.77
2022-08-08T12:56:18.956Z,34.27